createdAt,value
2023-03-23T15:58:04.936Z,12.60
2023-03-23T16:01:05.375Z,12.57
2023-03-23T16:04:12.871Z,12.48
2023-03-23T16:07:20.340Z,12.39
2023-03-23T16:10:29.452Z,12.41
2023-03-23T16:13:37.037Z,12.49
2023-03-23T16:16:44.281Z,12.54
2023-03-23T16:19:53.552Z,12.64
2023-03-23T16:23:00.852Z,12.70
2023-03-23T16:26:08.029Z,12.85
2023-03-23T16:29:33.752Z,12.97
2023-03-23T16:32:22.288Z,12.84
2023-03-23T16:35:29.484Z,12.66
2023-03-23T16:38:49.939Z,12.52
2023-03-23T16:41:43.498Z,12.44
2023-03-23T16:44:50.987Z,12.48
2023-03-23T16:47:58.902Z,12.64
2023-03-23T16:51:07.334Z,12.71
2023-03-23T16:54:15.165Z,12.75
2023-03-23T16:57:22.597Z,12.74
2023-03-23T17:00:32.004Z,12.71
2023-03-23T17:03:40.698Z,12.63
2023-03-23T17:06:39.027Z,12.57
2023-03-23T17:09:47.928Z,12.49
2023-03-23T17:12:55.694Z,12.45
2023-03-23T17:16:03.245Z,12.37
2023-03-23T17:19:10.745Z,12.33
2023-03-23T17:22:19.692Z,12.26
2023-03-23T17:25:27.319Z,12.19
2023-03-23T17:28:35.361Z,12.12
2023-03-23T17:31:43.851Z,12.05
2023-03-23T17:34:51.572Z,12.02
2023-03-23T17:37:59.454Z,12.02
2023-03-23T17:41:08.143Z,12.05
2023-03-23T17:44:15.840Z,12.06
2023-03-23T17:47:23.583Z,12.01
2023-03-23T17:50:32.148Z,11.99
2023-03-23T17:53:39.993Z,11.96
2023-03-23T17:56:47.902Z,11.90
2023-03-23T17:59:55.233Z,11.86
2023-03-23T18:03:04.801Z,11.85
2023-03-23T18:06:12.229Z,11.80
2023-03-23T18:09:19.789Z,11.72
2023-03-23T18:12:29.517Z,11.65
2023-03-23T18:15:37.307Z,11.50
2023-03-23T18:18:45.100Z,11.38
2023-03-23T18:21:54.101Z,11.25
2023-03-23T18:25:01.626Z,11.17
2023-03-23T18:28:09.342Z,11.06
2023-03-23T18:31:19.572Z,10.98
2023-03-23T18:34:27.197Z,10.88
2023-03-23T18:37:36.979Z,10.77
2023-03-23T18:40:44.750Z,10.62
2023-03-23T18:43:55.688Z,10.59
2023-03-23T18:47:04.625Z,10.58
2023-03-23T18:50:12.318Z,10.63
2023-03-23T18:53:21.830Z,10.73
2023-03-23T18:56:29.314Z,10.83
2023-03-23T18:59:36.602Z,10.86
2023-03-23T19:02:46.170Z,10.86
2023-03-23T19:05:48.775Z,10.86
2023-03-23T19:08:56.698Z,10.84
2023-03-23T19:12:06.717Z,10.83
2023-03-23T19:15:14.628Z,10.91
2023-03-23T19:18:22.298Z,10.95
2023-03-23T19:21:32.636Z,11.02
2023-03-23T19:24:40.596Z,11.02
2023-03-23T19:28:33.715Z,11.07
2023-03-23T19:30:52.550Z,11.11
2023-03-23T19:34:01.770Z,11.13
2023-03-23T19:37:11.473Z,11.19
2023-03-23T19:40:37.324Z,11.24
2023-03-23T19:43:26.582Z,11.28
2023-03-23T19:46:35.380Z,11.28
2023-03-23T19:49:43.548Z,11.25
2023-03-23T19:52:52.838Z,11.21
2023-03-23T19:56:00.642Z,11.17
2023-03-23T19:59:08.919Z,11.07
2023-03-23T20:02:18.345Z,10.96
2023-03-23T20:05:25.705Z,10.83
2023-03-23T20:08:33.376Z,10.66
2023-03-23T20:11:40.938Z,10.56
2023-03-23T20:14:49.775Z,10.43
2023-03-23T20:17:58.406Z,10.26
2023-03-23T20:21:06.726Z,10.15
2023-03-23T20:24:16.070Z,10.07
2023-03-23T20:27:23.287Z,9.96
2023-03-23T20:30:31.181Z,9.89
2023-03-23T20:33:40.433Z,9.81
2023-03-23T20:36:47.580Z,9.75
2023-03-23T20:39:55.505Z,9.67
2023-03-23T20:43:04.151Z,9.57
2023-03-23T20:46:12.506Z,9.49
2023-03-23T20:49:20.108Z,9.43
2023-03-23T20:52:27.315Z,9.42
2023-03-23T20:55:36.570Z,9.46
2023-03-23T20:58:44.130Z,9.49
2023-03-23T21:01:51.843Z,9.52
2023-03-23T21:05:00.944Z,9.50
2023-03-23T21:08:08.066Z,9.48
2023-03-23T21:11:16.305Z,9.45
2023-03-23T21:14:25.528Z,9.45
2023-03-23T21:17:32.835Z,9.45
2023-03-23T21:20:40.993Z,9.46
2023-03-23T21:23:50.009Z,9.39
2023-03-23T21:26:57.749Z,9.35
2023-03-23T21:30:05.963Z,9.32
2023-03-23T21:33:13.479Z,9.30
2023-03-23T21:36:22.538Z,9.24
2023-03-23T21:39:30.406Z,9.24
2023-03-23T21:42:38.157Z,9.21
2023-03-23T21:45:47.132Z,9.15
2023-03-23T21:48:55.110Z,9.13
2023-03-23T21:52:02.702Z,9.10
2023-03-23T21:55:11.621Z,9.12
2023-03-23T21:58:19.216Z,9.06
2023-03-23T22:01:27.263Z,9.13
2023-03-23T22:04:36.239Z,9.18
2023-03-23T22:07:43.828Z,9.25
2023-03-23T22:11:00.971Z,9.46
2023-03-23T22:13:56.390Z,9.58
2023-03-23T22:17:05.564Z,9.66
2023-03-23T22:20:13.571Z,9.71
2023-03-23T22:23:20.969Z,9.76
2023-03-23T22:26:30.442Z,9.79
2023-03-23T22:29:38.497Z,9.79
2023-03-23T22:32:45.884Z,9.78
2023-03-23T22:35:55.408Z,9.76
2023-03-23T22:39:03.238Z,9.78
2023-03-23T22:42:12.369Z,9.76
2023-03-23T22:45:12.087Z,9.81
2023-03-23T22:48:19.887Z,9.83
2023-03-23T22:51:27.743Z,9.93
2023-03-23T22:54:35.799Z,9.99
2023-03-23T22:57:44.676Z,10.06
2023-03-23T23:00:52.457Z,10.14
2023-03-23T23:04:00.470Z,10.28
2023-03-23T23:07:12.829Z,10.37
2023-03-23T23:10:10.073Z,10.40
2023-03-23T23:13:17.828Z,10.46
2023-03-23T23:16:27.291Z,10.53
2023-03-23T23:19:35.041Z,10.59
2023-03-23T23:22:43.866Z,10.65
2023-03-23T23:25:43.468Z,10.68
2023-03-23T23:28:51.046Z,10.77
2023-03-23T23:31:58.172Z,10.86
2023-03-23T23:35:05.844Z,10.95
2023-03-23T23:38:14.444Z,11.01
2023-03-23T23:41:22.408Z,10.99
2023-03-23T23:44:30.582Z,10.99
2023-03-23T23:47:39.430Z,11.06
2023-03-23T23:50:47.754Z,11.11
2023-03-23T23:53:56.015Z,11.09
2023-03-23T23:57:04.748Z,11.10
